Time;durP1;ratioP1;P1;durP2;ratioP2;P2;SDS_P1;SDS_P2;PMS_P1;PMS_P2;Temp;Humidity;BMP_temperature;BMP_pressure;BME280_temperature;BME280_humidity;BME280_pressure;Samples;Min_cycle;Max_cycle;Signal;HPM_P1;HPM_P2
2022/10/13 00:00:43;;;;;;;8.47;4.30;;;;;;;7.31;100.00;100562.73;1701903;84;21567;-84
2022/10/13 00:03:09;;;;;;;11.23;4.30;;;;;;;7.29;100.00;100561.98;1702752;84;21041;-84
2022/10/13 00:05:42;;;;;;;8.47;4.27;;;;;;;7.27;100.00;100557.23;1702515;84;21061;-83
2022/10/13 00:08:10;;;;;;;8.95;4.47;;;;;;;7.22;100.00;100556.80;1679544;85;21058;-83
2022/10/13 00:10:40;;;;;;;8.63;4.03;;;;;;;7.18;100.00;100560.76;1702805;82;21129;-84
2022/10/13 00:13:07;;;;;;;7.97;4.10;;;;;;;7.16;100.00;100558.70;1739441;82;21074;-84
2022/10/13 00:15:40;;;;;;;7.37;4.07;;;;;;;7.14;100.00;100557.48;1731825;82;21039;-83
2022/10/13 00:18:08;;;;;;;8.98;3.98;;;;;;;7.12;100.00;100560.81;1727406;82;21102;-82
2022/10/13 00:20:42;;;;;;;8.43;4.27;;;;;;;7.11;100.00;100556.91;1736467;83;21011;-84
2022/10/13 00:23:09;;;;;;;7.45;3.47;;;;;;;7.08;100.00;100555.33;1736950;83;21521;-84
2022/10/13 00:25:44;;;;;;;5.23;3.60;;;;;;;7.06;100.00;100551.93;1736609;83;21129;-84
2022/10/13 00:28:13;;;;;;;5.83;3.57;;;;;;;7.04;100.00;100560.62;1673526;86;21048;-84
2022/10/13 00:30:41;;;;;;;5.60;3.83;;;;;;;7.01;100.00;100552.36;1707510;84;21041;-83
2022/10/13 00:33:09;;;;;;;11.03;4.43;;;;;;;7.00;100.00;100553.83;1707681;84;21106;-84
2022/10/13 00:35:44;;;;;;;7.47;4.20;;;;;;;6.99;100.00;100549.42;1707439;84;21109;-83
2022/10/13 00:38:10;;;;;;;8.65;4.20;;;;;;;6.96;100.00;100544.34;1691541;85;20994;-85
2022/10/13 00:40:51;;;;;;;9.53;4.30;;;;;;;6.95;100.00;100550.70;1691578;85;21021;-83
2022/10/13 00:43:23;;;;;;;8.63;4.47;;;;;;;6.92;100.00;100553.64;1689926;85;21089;-84
2022/10/13 00:45:50;;;;;;;11.60;4.60;;;;;;;6.92;100.00;100553.64;1681625;85;21585;-83
2022/10/13 00:48:27;;;;;;;9.10;4.77;;;;;;;6.89;100.00;100552.09;1688075;85;21540;-82
2022/10/13 00:50:54;;;;;;;11.97;5.20;;;;;;;6.86;100.00;100558.23;1688474;85;21041;-83
2022/10/13 00:53:23;;;;;;;10.77;4.43;;;;;;;6.83;100.00;100557.98;1653922;85;21065;-84
2022/10/13 00:55:50;;;;;;;13.63;4.70;;;;;;;6.79;100.00;100550.69;1688443;85;21058;-83
2022/10/13 00:58:19;;;;;;;9.67;4.10;;;;;;;6.75;100.00;100553.80;1683416;84;21036;-83
2022/10/13 01:00:47;;;;;;;12.20;4.50;;;;;;;6.72;100.00;100546.83;1703947;84;21019;-84
2022/10/13 01:03:19;;;;;;;11.40;4.63;;;;;;;6.70;100.00;100554.69;1703988;84;21031;-84
2022/10/13 01:05:46;;;;;;;7.10;4.27;;;;;;;6.69;100.00;100552.97;1703873;84;21121;-83
2022/10/13 01:08:13;;;;;;;10.33;4.57;;;;;;;6.66;100.00;100556.79;1703873;84;21191;-83
2022/10/13 01:11:13;;;;;;;10.70;4.10;;;;;;;6.65;100.00;100553.73;1703736;84;21027;-82
2022/10/13 01:14:15;;;;;;;11.80;4.27;;;;;;;6.65;100.00;100552.39;1664994;86;21551;-82
2022/10/13 01:17:07;;;;;;;9.98;4.22;;;;;;;6.62;100.00;100549.48;1640113;86;21019;-85
2022/10/13 01:20:09;;;;;;;8.60;3.80;;;;;;;6.57;100.00;100553.06;1642514;87;21052;-83
2022/10/13 01:23:05;;;;;;;11.50;4.00;;;;;;;6.52;100.00;100555.29;1642779;87;21045;-84
2022/10/13 01:25:47;;;;;;;6.30;4.00;;;;;;;6.47;100.00;100556.17;1642627;87;21133;-84
2022/10/13 01:28:31;;;;;;;10.30;3.80;;;;;;;6.41;100.00;100551.31;1639558;87;20985;-83
2022/10/13 01:31:12;;;;;;;6.73;3.67;;;;;;;6.37;100.00;100563.31;1642560;87;21076;-83
2022/10/13 01:34:07;;;;;;;6.57;3.93;;;;;;;6.32;100.00;100557.01;1642927;87;21057;-83
2022/10/13 01:37:05;;;;;;;8.10;3.93;;;;;;;6.30;100.00;100552.73;1622876;88;21617;-84
2022/10/13 01:39:41;;;;;;;8.77;3.90;;;;;;;6.27;100.00;100559.23;1630521;87;21071;-84
2022/10/13 01:42:25;;;;;;;7.90;3.30;;;;;;;6.24;100.00;100562.17;1667489;85;21033;-84
2022/10/13 01:44:55;;;;;;;10.00;4.03;;;;;;;6.22;100.00;100560.11;1631397;86;21069;-83
2022/10/13 01:47:23;;;;;;;9.27;3.60;;;;;;;6.19;100.00;100554.49;1638054;85;21332;-84
2022/10/13 01:49:52;;;;;;;7.70;3.80;;;;;;;6.17;100.00;100561.83;1643666;86;21037;-84
2022/10/13 01:52:20;;;;;;;6.23;3.80;;;;;;;6.14;100.00;100562.59;1640091;86;21058;-83
2022/10/13 01:54:51;;;;;;;8.33;3.90;;;;;;;6.11;100.00;100553.44;1660032;86;21042;-83
2022/10/13 01:57:30;;;;;;;7.57;3.53;;;;;;;6.07;100.00;100560.44;1659292;86;21050;-84
2022/10/13 02:00:05;;;;;;;10.77;3.87;;;;;;;6.04;100.00;100553.13;1654681;87;21643;-83
2022/10/13 02:02:51;;;;;;;8.87;3.87;;;;;;;6.01;100.00;100550.19;1563406;92;21091;-83
2022/10/13 02:05:48;;;;;;;7.30;3.40;;;;;;;6.00;100.00;100554.34;1542133;93;21571;-85
2022/10/13 02:08:33;;;;;;;6.60;3.60;;;;;;;5.98;100.00;100554.97;1514289;94;21577;-84
2022/10/13 02:11:15;;;;;;;8.57;3.30;;;;;;;5.94;100.00;100559.71;1481028;92;21208;-84
2022/10/13 02:14:13;;;;;;;6.83;3.70;;;;;;;5.95;100.00;100563.23;1476935;97;21137;-83
2022/10/13 02:16:42;;;;;;;6.73;3.40;;;;;;;5.93;100.00;100562.02;1468547;97;21153;-82
2022/10/13 02:19:13;;;;;;;11.57;3.57;;;;;;;5.91;100.00;100563.98;1472385;98;21112;-83
2022/10/13 02:21:40;;;;;;;9.10;3.53;;;;;;;5.87;100.00;100566.08;1472564;98;21137;-84
2022/10/13 02:24:08;;;;;;;10.30;3.93;;;;;;;5.86;100.00;100563.05;1472191;98;21551;-84
2022/10/13 02:26:35;;;;;;;13.50;4.23;;;;;;;5.84;100.00;100570.38;1472382;98;21582;-84
2022/10/13 02:29:14;;;;;;;7.53;3.77;;;;;;;5.83;100.00;100565.13;1472349;97;21130;-84
2022/10/13 02:31:43;;;;;;;6.00;3.53;;;;;;;5.79;100.00;100565.00;1472383;98;21639;-83
2022/10/13 02:34:10;;;;;;;8.93;3.20;;;;;;;5.76;100.00;100562.10;1472314;98;21081;-83
2022/10/13 02:36:38;;;;;;;9.53;3.50;;;;;;;5.75;100.00;100557.70;1472337;98;21125;-84
2022/10/13 02:39:07;;;;;;;8.13;3.70;;;;;;;5.77;100.00;100566.50;1478527;96;21113;-84
2022/10/13 02:41:34;;;;;;;7.00;3.20;;;;;;;5.77;100.00;100562.95;1515978;92;21091;-84
2022/10/13 02:44:01;;;;;;;9.43;3.53;;;;;;;5.78;100.00;100554.77;1554803;92;21138;-84
2022/10/13 02:46:31;;;;;;;6.53;3.67;;;;;;;5.78;100.00;100564.66;1549745;93;21666;-83
2022/10/13 02:48:58;;;;;;;10.57;3.67;;;;;;;5.75;100.00;100560.38;1574194;91;21101;-84
2022/10/13 02:51:25;;;;;;;6.77;3.23;;;;;;;5.75;100.00;100558.20;1574394;91;21102;-83
2022/10/13 02:53:52;;;;;;;8.70;3.53;;;;;;;5.73;100.00;100562.84;1619658;87;21029;-81
2022/10/13 02:56:19;;;;;;;9.43;3.63;;;;;;;5.71;100.00;100559.78;1658742;85;21023;-84
2022/10/13 02:58:47;;;;;;;7.27;3.80;;;;;;;5.69;100.00;100564.43;1688122;85;21106;-84
2022/10/13 03:01:15;;;;;;;11.43;3.50;;;;;;;5.67;100.00;100564.21;1688247;85;21082;-84
2022/10/13 03:03:41;;;;;;;8.03;3.40;;;;;;;5.64;100.00;100557.75;1688537;85;21085;-83
2022/10/13 03:06:08;;;;;;;8.20;3.50;;;;;;;5.62;100.00;100559.21;1738445;81;21007;-85
2022/10/13 03:08:36;;;;;;;8.33;3.40;;;;;;;5.61;100.00;100555.31;1768823;81;21087;-84
2022/10/13 03:11:05;;;;;;;6.03;3.40;;;;;;;5.60;100.00;100561.67;1768687;81;21022;-84
2022/10/13 03:13:32;;;;;;;6.20;3.50;;;;;;;5.60;100.00;100563.86;1769042;81;21042;-84
2022/10/13 03:16:00;;;;;;;9.73;3.60;;;;;;;5.60;100.00;100563.86;1765676;81;21477;-84
2022/10/13 03:18:28;;;;;;;8.13;3.47;;;;;;;5.60;100.00;100564.36;1769248;81;21076;-85
2022/10/13 03:20:58;;;;;;;12.63;3.83;;;;;;;5.60;100.00;100566.54;1769158;81;21031;-83
2022/10/13 03:23:26;;;;;;;7.63;3.13;;;;;;;5.58;100.00;100565.81;1769230;81;21054;-82
2022/10/13 03:25:53;;;;;;;5.97;3.50;;;;;;;5.56;100.00;100554.83;1769443;81;21027;-83
2022/10/13 03:28:19;;;;;;;7.43;3.60;;;;;;;5.55;100.00;100555.83;1769669;81;21038;-84
2022/10/13 03:30:47;;;;;;;10.63;3.17;;;;;;;5.53;100.00;100559.13;1769168;81;21089;-85
2022/10/13 03:33:14;;;;;;;5.53;2.83;;;;;;;5.51;100.00;100561.94;1769536;81;21010;-83
2022/10/13 03:35:42;;;;;;;4.70;3.30;;;;;;;5.50;100.00;100556.20;1769333;81;21018;-83
2022/10/13 03:38:10;;;;;;;6.77;3.23;;;;;;;5.49;100.00;100560.72;1769739;81;21429;-84
2022/10/13 03:40:38;;;;;;;8.63;3.13;;;;;;;5.49;100.00;100562.56;1770318;81;21098;-84
2022/10/13 03:43:05;;;;;;;6.87;3.17;;;;;;;5.48;100.00;100567.55;1770343;81;20983;-84
2022/10/13 03:45:32;;;;;;;7.93;3.50;;;;;;;5.47;100.00;100560.46;1775397;81;21018;-86
2022/10/13 03:48:00;;;;;;;7.17;3.70;;;;;;;5.47;100.00;100569.85;1776887;81;21633;-84
2022/10/13 03:50:27;;;;;;;8.23;3.40;;;;;;;5.45;100.00;100566.44;1777339;80;21006;-84
2022/10/13 03:52:54;;;;;;;9.30;3.70;;;;;;;5.43;100.00;100561.70;1777164;81;20974;-85
2022/10/13 03:55:21;;;;;;;6.73;3.30;;;;;;;5.42;100.00;100561.32;1777177;81;21010;-85
2022/10/13 03:57:49;;;;;;;5.80;3.30;;;;;;;5.40;100.00;100562.81;1777477;81;20995;-86
2022/10/13 04:00:16;;;;;;;10.00;3.40;;;;;;;5.39;100.00;100563.78;1747208;81;21019;-84
2022/10/13 04:02:42;;;;;;;6.17;2.93;;;;;;;5.39;100.00;100561.59;1777270;81;21010;-84
2022/10/13 04:05:09;;;;;;;6.17;3.40;;;;;;;5.38;100.00;100564.74;1777480;81;21484;-84
2022/10/13 04:07:36;;;;;;;7.30;3.40;;;;;;;5.38;100.00;100567.92;1777463;80;21049;-84
2022/10/13 04:10:05;;;;;;;6.73;3.47;;;;;;;5.37;100.00;100565.73;1773252;81;20990;-85
2022/10/13 04:12:34;;;;;;;11.30;3.77;;;;;;;5.36;100.00;100568.05;1748223;81;21515;-84
2022/10/13 04:15:03;;;;;;;9.20;3.47;;;;;;;5.35;100.00;100574.41;1783078;79;21009;-83
2022/10/13 04:17:30;;;;;;;8.37;3.60;;;;;;;5.33;100.00;100570.50;1814333;79;21006;-84
2022/10/13 04:19:57;;;;;;;7.97;4.00;;;;;;;5.32;100.00;100570.13;1814465;79;21064;-84
2022/10/13 04:22:24;;;;;;;8.90;3.97;;;;;;;5.31;100.00;100575.14;1814696;79;21500;-84
2022/10/13 04:24:51;;;;;;;10.00;3.40;;;;;;;5.30;100.00;100575.27;1815861;78;21025;-83
2022/10/13 04:27:18;;;;;;;7.53;3.67;;;;;;;5.29;100.00;100581.12;1815986;79;21002;-85
2022/10/13 04:29:46;;;;;;;10.83;3.53;;;;;;;5.29;100.00;100580.24;1815333;79;21050;-84
2022/10/13 04:32:13;;;;;;;8.60;3.47;;;;;;;5.28;100.00;100579.41;1814125;79;20998;-85
2022/10/13 04:34:42;;;;;;;7.63;3.67;;;;;;;5.28;100.00;100576.72;1814349;79;21038;-84
2022/10/13 04:37:09;;;;;;;9.23;4.30;;;;;;;5.29;100.00;100577.56;1814091;79;20974;-83
2022/10/13 04:39:35;;;;;;;78.27;41.33;;;;;;;5.31;100.00;100568.91;1775781;81;21014;-81
2022/10/13 04:42:02;;;;;;;19.23;9.07;;;;;;;5.36;100.00;100569.38;1745239;82;20992;-77
2022/10/13 04:44:29;;;;;;;15.00;7.47;;;;;;;5.45;100.00;100569.13;1737114;82;21087;-81
2022/10/13 04:46:59;;;;;;;9.13;4.57;;;;;;;5.55;100.00;100566.56;1720634;83;20999;-85
2022/10/13 04:49:26;;;;;;;11.37;5.00;;;;;;;5.66;100.00;100559.81;1707398;83;21060;-86
2022/10/13 04:51:53;;;;;;;13.27;4.57;;;;;;;5.80;100.00;100563.54;1716115;83;21019;-86
2022/10/13 04:54:21;;;;;;;7.43;3.93;;;;;;;5.90;100.00;100566.33;1782740;80;20989;-87
2022/10/13 04:56:48;;;;;;;6.93;3.57;;;;;;;5.93;100.00;100567.39;1784997;80;21013;-84
2022/10/13 04:59:15;;;;;;;11.60;3.70;;;;;;;5.95;100.00;100568.61;1783880;80;21029;-79
2022/10/13 05:01:42;;;;;;;9.07;3.83;;;;;;;5.95;100.00;100566.80;1783283;80;21030;-77
2022/10/13 05:04:10;;;;;;;9.37;3.33;;;;;;;5.95;100.00;100573.51;1778447;80;20962;-78
2022/10/13 05:06:40;;;;;;;6.73;3.03;;;;;;;5.96;100.00;100573.88;1783683;80;21002;-83
2022/10/13 05:09:09;;;;;;;32.97;15.73;;;;;;;6.00;100.00;100577.16;1783952;80;21000;-81
2022/10/13 05:11:36;;;;;;;48.57;28.77;;;;;;;6.05;100.00;100577.13;1784981;80;20969;-76
2022/10/13 05:14:03;;;;;;;28.97;13.73;;;;;;;6.14;100.00;100583.56;1781841;80;20996;-78
2022/10/13 05:16:30;;;;;;;17.33;7.07;;;;;;;6.23;100.00;100582.81;1783037;80;21009;-81
2022/10/13 05:18:57;;;;;;;20.37;9.83;;;;;;;6.35;100.00;100585.42;1783835;80;21124;-82
2022/10/13 05:21:27;;;;;;;17.50;8.23;;;;;;;6.43;100.00;100585.14;1774883;80;20987;-79
2022/10/13 05:23:55;;;;;;;49.40;26.80;;;;;;;6.55;100.00;100583.72;1763761;81;21071;-82
2022/10/13 05:26:27;;;;;;;22.20;9.13;;;;;;;6.67;100.00;100582.66;1731477;81;21521;-75
2022/10/13 05:28:54;;;;;;;15.03;6.30;;;;;;;6.81;100.00;100581.47;1762572;81;21043;-76
2022/10/13 05:31:25;;;;;;;11.50;4.50;;;;;;;6.91;100.00;100586.91;1763079;81;21039;-75
2022/10/13 05:33:53;;;;;;;52.50;31.43;;;;;;;6.97;100.00;100583.16;1762864;81;21062;-76
2022/10/13 05:36:26;;;;;;;87.63;51.10;;;;;;;7.02;100.00;100581.44;1669710;85;21093;-74
2022/10/13 05:38:55;;;;;;;62.47;37.10;;;;;;;7.12;100.00;100589.52;1658300;86;21509;-79
2022/10/13 05:41:23;;;;;;;23.87;12.53;;;;;;;7.25;100.00;100593.34;1641587;87;21660;-78
2022/10/13 05:43:59;;;;;;;22.33;9.97;;;;;;;7.35;100.00;100584.32;1635523;86;21001;-79
2022/10/13 05:46:32;;;;;;;109.67;56.80;;;;;;;7.47;100.00;100586.89;1650875;87;21066;-78
2022/10/13 05:48:58;;;;;;;36.10;16.47;;;;;;;7.57;100.00;100591.30;1652579;87;21906;-81
2022/10/13 05:51:34;;;;;;;17.27;8.37;;;;;;;7.68;100.00;100592.18;1646747;87;21054;-78
2022/10/13 05:54:15;;;;;;;11.77;5.70;;;;;;;7.76;100.00;100597.23;1645948;87;21543;-80
2022/10/13 05:56:49;;;;;;;10.90;5.00;;;;;;;7.84;100.00;100600.56;1590905;90;21094;-79
2022/10/13 05:59:17;;;;;;;13.30;6.03;;;;;;;7.94;100.00;100606.81;1495585;96;21176;-78
2022/10/13 06:01:46;;;;;;;16.20;6.60;;;;;;;8.03;100.00;100606.47;1495974;96;21081;-81
2022/10/13 06:04:21;;;;;;;14.23;5.03;;;;;;;8.13;100.00;100604.64;1496256;96;21563;-78
2022/10/13 06:06:48;;;;;;;9.80;4.80;;;;;;;8.27;100.00;100609.23;1495887;96;21112;-79
2022/10/13 06:09:15;;;;;;;10.87;4.20;;;;;;;8.42;100.00;100609.66;1482913;96;21123;-77
2022/10/13 06:11:43;;;;;;;18.30;7.67;;;;;;;8.55;100.00;100618.31;1445296;99;21158;-78
2022/10/13 06:14:11;;;;;;;22.60;8.17;;;;;;;8.69;100.00;100620.59;1471077;98;21634;-78
2022/10/13 06:16:39;;;;;;;18.63;7.37;;;;;;;8.84;100.00;100620.14;1446334;99;21186;-78
2022/10/13 06:19:06;;;;;;;14.77;5.60;;;;;;;9.00;100.00;100625.76;1472068;98;21085;-79
2022/10/13 06:21:34;;;;;;;14.53;4.80;;;;;;;9.16;100.00;100632.39;1446153;98;21624;-78
2022/10/13 06:24:01;;;;;;;10.53;4.93;;;;;;;9.33;100.00;100632.97;1471039;96;21651;-80
2022/10/13 06:26:30;;;;;;;9.90;4.20;;;;;;;9.52;100.00;100633.87;1445755;98;21134;-83
2022/10/13 06:28:57;;;;;;;10.18;4.20;;;;;;;9.76;100.00;100629.27;1468582;96;21096;-81
2022/10/13 06:31:35;;;;;;;7.78;4.03;;;;;;;10.01;100.00;100635.27;1463683;97;21153;-79
2022/10/13 06:34:13;;;;;;;10.72;4.03;;;;;;;10.28;100.00;100635.38;1500488;94;21638;-73
2022/10/13 06:36:42;;;;;;;10.60;4.10;;;;;;;10.54;100.00;100642.23;1409518;102;21118;-72
2022/10/13 06:39:10;;;;;;;8.35;4.15;;;;;;;10.80;100.00;100644.47;1409244;102;21363;-74
2022/10/13 06:41:38;;;;;;;11.12;4.97;;;;;;;11.08;100.00;100646.16;1409870;102;21157;-72
2022/10/13 06:44:05;;;;;;;13.80;5.17;;;;;;;11.29;100.00;100652.55;1414400;100;21196;-71
2022/10/13 06:46:32;;;;;;;12.10;5.03;;;;;;;11.47;100.00;100657.37;1430040;99;21189;-72
2022/10/13 06:48:59;;;;;;;11.43;4.25;;;;;;;11.65;100.00;100666.79;1453612;99;21224;-72
2022/10/13 06:51:28;;;;;;;10.82;4.37;;;;;;;11.83;100.00;100667.17;1450118;99;21180;-74
2022/10/13 06:53:55;;;;;;;11.08;5.45;;;;;;;12.01;100.00;100671.18;1451017;99;21109;-73
2022/10/13 06:56:23;;;;;;;13.22;4.65;;;;;;;12.20;100.00;100681.73;1510614;93;21112;-72
2022/10/13 06:58:51;;;;;;;11.73;5.28;;;;;;;12.41;100.00;100682.62;1542432;93;21136;-73
2022/10/13 07:01:18;;;;;;;13.70;4.75;;;;;;;12.67;100.00;100689.75;1542815;93;21173;-73
2022/10/13 07:03:48;;;;;;;25.40;8.03;;;;;;;12.91;100.00;100693.83;1543277;93;21056;-72
2022/10/13 07:06:17;;;;;;;12.68;5.22;;;;;;;13.19;100.00;100698.89;1542454;93;21717;-71
2022/10/13 07:08:45;;;;;;;13.10;5.37;;;;;;;13.45;100.00;100712.27;1631226;88;21095;-71
2022/10/13 07:11:14;;;;;;;14.13;5.78;;;;;;;13.70;100.00;100718.15;1613752;89;21082;-71
2022/10/13 07:13:43;;;;;;;9.65;4.37;;;;;;;13.86;100.00;100729.83;1613785;88;21083;-72
2022/10/13 07:16:13;;;;;;;7.03;3.85;;;;;;;14.01;100.00;100740.80;1586871;88;21105;-70
2022/10/13 07:18:39;;;;;;;10.98;4.45;;;;;;;14.14;100.00;100745.66;1571018;90;21140;-71
2022/10/13 07:21:08;;;;;;;11.70;4.50;;;;;;;14.30;100.00;100757.49;1572248;91;21111;-72
2022/10/13 07:23:35;;;;;;;10.35;4.40;;;;;;;14.50;100.00;100757.88;1573564;91;21735;-73
2022/10/13 07:53:48;;;;;;;5.60;2.75;;;;;;;16.06;100.00;100815.16;1637848;81;21122;-76
2022/10/13 07:56:15;;;;;;;7.33;3.35;;;;;;;16.29;100.00;100821.91;1723614;83;21053;-77
2022/10/13 07:58:45;;;;;;;7.25;2.95;;;;;;;16.45;100.00;100827.64;1723707;82;21016;-79
2022/10/13 08:01:12;;;;;;;5.75;3.15;;;;;;;16.52;100.00;100838.16;1709920;83;21089;-78
2022/10/13 08:03:40;;;;;;;8.60;3.10;;;;;;;16.62;100.00;100842.78;1711735;81;21019;-80
2022/10/13 08:06:08;;;;;;;7.80;3.00;;;;;;;16.75;100.00;100840.75;1723782;83;21019;-79
2022/10/13 08:08:35;;;;;;;9.00;3.70;;;;;;;16.94;100.00;100840.66;1723006;83;21037;-77
2022/10/13 08:11:06;;;;;;;7.15;2.90;;;;;;;17.08;100.00;100848.48;1717042;83;21059;-74
2022/10/13 08:13:34;;;;;;;6.83;2.80;;;;;;;17.25;100.00;100848.55;1709522;83;20979;-74
2022/10/13 08:16:03;;;;;;;7.62;2.90;;;;;;;17.38;100.00;100850.56;1712037;83;21016;-72
2022/10/13 08:18:31;;;;;;;5.67;3.12;;;;;;;17.54;100.00;100856.27;1692516;83;21136;-73
2022/10/13 08:21:00;;;;;;;6.80;2.60;;;;;;;17.70;100.00;100853.77;1723062;83;21020;-73
2022/10/13 08:23:29;;;;;;;4.87;2.58;;;;;;;17.88;100.00;100852.47;1719833;83;21071;-72
2022/10/13 08:25:55;;;;;;;5.05;2.50;;;;;;;17.99;100.00;100858.25;1709604;83;21057;-75
2022/10/13 08:28:27;;;;;;;7.20;2.98;;;;;;;18.10;100.00;100859.58;1714282;83;21118;-73
2022/10/13 08:30:59;;;;;;;12.98;6.37;;;;;;;18.28;100.00;100850.84;1715329;81;21006;-73
2022/10/13 08:33:29;;;;;;;6.42;3.65;;;;;;;18.47;100.00;100847.89;1623328;86;21562;-74
2022/10/13 08:35:56;;;;;;;6.85;2.90;;;;;;;18.63;100.00;100856.78;1646849;86;21088;-78
2022/10/13 08:38:25;;;;;;;7.30;2.60;;;;;;;18.76;100.00;100852.74;1637942;86;21046;-81
2022/10/13 08:40:52;;;;;;;6.95;2.98;;;;;;;18.83;100.00;100856.91;1637161;88;21073;-80
2022/10/13 08:43:21;;;;;;;6.85;2.75;;;;;;;18.96;100.00;100854.20;1641626;86;21037;-76
2022/10/13 08:45:52;;;;;;;5.30;1.85;;;;;;;19.07;100.00;100851.38;1647233;86;20995;-78
2022/10/13 08:48:23;;;;;;;5.35;2.70;;;;;;;19.07;100.00;100849.50;1625364;87;21030;-81
2022/10/13 08:50:53;;;;;;;17.67;4.37;;;;;;;19.16;100.00;100845.50;1617751;87;21085;-81
2022/10/13 08:53:38;;;;;;;8.10;3.05;;;;;;;19.31;100.00;100852.70;1618649;87;21138;-75
2022/10/13 08:56:15;;;;;;;6.67;2.90;;;;;;;19.41;100.00;100850.39;1634683;86;21109;-81
2022/10/13 08:58:44;;;;;;;5.05;2.52;;;;;;;19.42;100.00;100858.08;1648965;86;21157;-78
2022/10/13 09:01:26;;;;;;;5.97;2.77;;;;;;;19.44;100.00;100851.35;1647363;86;21054;-79
2022/10/13 09:04:35;;;;;;;7.35;3.17;;;;;;;19.54;100.00;100853.13;1662908;86;21124;-80
2022/10/13 09:07:16;;;;;;;7.28;3.87;;;;;;;19.61;100.00;100853.13;1655541;86;21086;-81
2022/10/13 09:09:46;;;;;;;11.00;3.12;;;;;;;19.73;100.00;100864.33;1673034;86;21057;-79
2022/10/13 09:12:14;;;;;;;11.93;4.10;;;;;;;19.78;100.00;100855.47;1613812;89;21073;-81
2022/10/13 09:14:46;;;;;;;7.75;3.15;;;;;;;19.79;100.00;100850.31;1579006;91;21527;-81
2022/10/13 09:17:23;;;;;;;8.85;4.50;;;;;;;19.81;100.00;100853.69;1598513;89;21174;-84
2022/10/13 09:23:24;;;;;;;5.60;2.98;;;;;;;19.79;100.00;100852.52;1532354;92;21080;-81
2022/10/13 09:25:57;;;;;;;5.83;2.50;;;;;;;19.83;100.00;100849.69;1552925;91;21121;-72
2022/10/13 09:28:30;;;;;;;6.22;3.10;;;;;;;19.87;100.00;100850.94;1549705;91;21071;-72
2022/10/13 09:31:14;;;;;;;4.83;2.83;;;;;;;19.91;100.00;100842.59;1544730;91;21123;-73
2022/10/13 09:33:48;;;;;;;6.03;2.60;;;;;;;19.91;100.00;100843.13;1561370;91;21157;-82
2022/10/13 09:36:19;;;;;;;6.45;2.92;;;;;;;19.84;100.00;100845.88;1550682;90;21136;-75
2022/10/13 09:39:05;;;;;;;6.58;3.30;;;;;;;19.79;100.00;100839.34;1577298;90;21073;-77
2022/10/13 09:41:33;;;;;;;6.08;2.98;;;;;;;19.73;100.00;100832.27;1529693;93;21129;-81
2022/10/13 09:44:06;;;;;;;6.85;2.72;;;;;;;;;;1526909;90;21100;-81
2022/10/13 09:47:10;;;;;;;8.65;3.25;;;;;;;19.82;100.00;100830.16;1519568;93;21082;-78
2022/10/13 09:49:42;;;;;;;7.50;3.47;;;;;;;19.94;100.00;100831.73;1499123;94;21189;-78
2022/10/13 09:52:17;;;;;;;7.35;3.15;;;;;;;20.01;100.00;100829.81;1489097;94;21630;-76
2022/10/13 09:54:49;;;;;;;6.62;3.27;;;;;;;19.89;100.00;100822.75;1501353;94;21618;-78
2022/10/13 09:57:39;;;;;;;7.50;3.83;;;;;;;19.89;100.00;100824.13;1501434;96;21050;-76
2022/10/13 10:00:23;;;;;;;6.83;3.55;;;;;;;19.93;100.00;100822.33;1514310;95;21153;-76
2022/10/13 10:03:13;;;;;;;8.87;3.20;;;;;;;19.90;100.00;100825.83;1455757;99;21133;-75
2022/10/13 10:05:57;;;;;;;3.80;2.55;;;;;;;19.90;100.00;100825.83;1481871;96;21937;-81
2022/10/13 10:09:04;;;;;;;10.08;4.15;;;;;;;19.97;100.00;100824.95;1461297;98;21164;-77
2022/10/13 10:11:45;;;;;;;9.20;4.15;;;;;;;19.95;100.00;100821.05;1412457;101;21138;-76
2022/10/13 10:14:28;;;;;;;5.25;3.10;;;;;;;19.96;100.00;100821.38;1408057;101;21156;-74
2022/10/13 10:17:32;;;;;;;6.97;3.07;;;;;;;19.92;100.00;100820.13;1411666;100;21208;-71
2022/10/13 10:20:33;;;;;;;7.97;3.20;;;;;;;19.73;100.00;100821.80;1435811;99;21113;-74
2022/10/13 10:23:22;;;;;;;8.63;3.87;;;;;;;19.67;100.00;100818.02;1459870;98;21103;-78
2022/10/13 10:25:53;;;;;;;9.18;3.00;;;;;;;19.70;100.00;100816.73;1467390;98;21092;-76
2022/10/13 10:28:31;;;;;;;4.70;2.83;;;;;;;19.77;100.00;100813.48;1467287;98;21621;-80
2022/10/13 10:31:26;;;;;;;6.75;3.20;;;;;;;19.79;100.00;100815.48;1467860;98;21103;-79
2022/10/13 10:34:11;;;;;;;9.65;3.50;;;;;;;19.86;100.00;100814.11;1415609;101;21252;-73
2022/10/13 10:37:07;;;;;;;6.92;2.72;;;;;;;19.98;100.00;100811.02;1413278;101;21152;-78
2022/10/13 10:40:11;;;;;;;6.00;2.83;;;;;;;20.06;100.00;100808.06;1415146;101;21185;-76
2022/10/13 10:43:13;;;;;;;6.75;3.08;;;;;;;20.10;100.00;100805.19;1410377;101;21212;-72
2022/10/13 10:45:41;;;;;;;11.10;5.25;;;;;;;20.12;100.00;100806.34;1380496;104;21809;-76
2022/10/13 10:48:36;;;;;;;94.58;67.42;;;;;;;20.15;100.00;100807.30;1380155;104;21623;-75
2022/10/13 10:51:06;;;;;;;18.40;9.40;;;;;;;20.12;100.00;100794.53;1334560;107;21198;-75
2022/10/13 10:54:17;;;;;;;8.30;3.75;;;;;;;20.10;100.00;100805.72;1328472;107;21825;-74
2022/10/13 10:56:53;;;;;;;5.22;3.40;;;;;;;20.03;100.00;100802.16;1343617;106;21171;-74
2022/10/13 10:59:51;;;;;;;11.28;2.70;;;;;;;19.99;100.00;100798.13;1336435;106;21655;-76
2022/10/13 11:02:28;;;;;;;5.62;2.27;;;;;;;19.97;100.00;100797.51;1345177;106;21147;-74
2022/10/13 11:04:58;;;;;;;4.08;2.05;;;;;;;19.94;100.00;100792.44;1346314;107;21229;-79
2022/10/13 11:07:35;;;;;;;6.40;2.22;;;;;;;19.93;100.00;100786.66;1352664;104;21256;-77
2022/10/13 11:10:19;;;;;;;2.95;1.90;;;;;;;20.01;100.00;100786.41;1376497;104;21155;-78
2022/10/13 11:12:54;;;;;;;6.92;2.65;;;;;;;20.15;100.00;100786.70;1495719;96;21106;-79
2022/10/13 11:15:27;;;;;;;3.85;2.45;;;;;;;20.21;100.00;100787.73;1476861;97;21113;-78
2022/10/13 11:17:55;;;;;;;6.92;2.30;;;;;;;20.09;100.00;100788.92;1499126;96;21129;-79
2022/10/13 11:20:27;;;;;;;4.78;2.40;;;;;;;19.76;100.00;100793.98;1499069;94;21129;-81
2022/10/13 11:23:04;;;;;;;2.67;1.95;;;;;;;19.25;100.00;100789.95;1516879;92;21155;-79
2022/10/13 11:25:46;;;;;;;3.25;1.57;;;;;;;18.75;100.00;100788.03;1536757;93;21131;-77
2022/10/13 11:28:26;;;;;;;5.15;1.75;;;;;;;18.51;100.00;100789.45;1520230;93;21061;-79
2022/10/13 11:30:56;;;;;;;5.87;2.35;;;;;;;18.46;100.00;100785.11;1515589;94;21092;-77
2022/10/13 11:33:39;;;;;;;9.55;4.53;;;;;;;18.45;100.00;100782.91;1519161;94;21041;-81
2022/10/13 11:36:48;;;;;;;11.68;5.17;;;;;;;18.51;100.00;100784.81;1525915;92;21077;-73
2022/10/13 11:39:38;;;;;;;5.75;2.22;;;;;;;18.63;100.00;100776.85;1498285;94;21067;-73
2022/10/13 11:42:33;;;;;;;5.62;2.35;;;;;;;18.79;100.00;100780.58;1520738;94;21601;-74
2022/10/13 11:45:07;;;;;;;4.55;2.55;;;;;;;18.96;100.00;100776.96;1554989;88;21068;-71
2022/10/13 11:47:55;;;;;;;4.47;2.05;;;;;;;19.02;100.00;100781.30;1620357;88;21071;-71
2022/10/13 11:50:47;;;;;;;7.62;2.30;;;;;;;18.89;100.00;100784.33;1620575;88;21103;-72
2022/10/13 11:53:19;;;;;;;2.30;2.10;;;;;;;18.56;100.00;100790.52;1630372;87;21158;-73
2022/10/13 11:55:53;;;;;;;7.92;3.25;;;;;;;18.16;100.00;100786.23;1639466;85;21046;-75
2022/10/13 11:58:27;;;;;;;11.70;4.78;;;;;;;17.88;100.00;100784.91;1663773;86;21066;-78
2022/10/13 12:01:06;;;;;;;3.60;1.95;;;;;;;17.77;100.00;100781.35;1664251;86;21019;-76
2022/10/13 12:03:42;;;;;;;5.67;2.50;;;;;;;17.78;100.00;100778.42;1664204;86;21090;-75
2022/10/13 12:06:32;;;;;;;5.47;2.10;;;;;;;17.87;100.00;100773.67;1630263;88;21096;-79
2022/10/13 12:09:04;;;;;;;3.40;2.17;;;;;;;17.99;100.00;100779.43;1631553;88;21102;-77
2022/10/13 12:11:35;;;;;;;5.30;2.60;;;;;;;17.99;100.00;100774.80;1630513;88;21129;-76
2022/10/13 12:14:08;;;;;;;2.47;2.10;;;;;;;17.91;100.00;100789.16;1630157;88;21091;-75
2022/10/13 12:16:35;;;;;;;2.33;1.40;;;;;;;17.73;100.00;100779.55;1630512;88;21074;-75
2022/10/13 12:19:23;;;;;;;3.08;1.32;;;;;;;17.54;100.00;100785.72;1630306;88;21047;-77